Schneifelwetter: Wetterstation Hallschlag, 537 m . NN
Wetterdaten: Mittwoch, 31.03.2010
Datum Zeit Temp. A. Feuchte A. Luftdruck Regen Wind Richtung Richtung Sonnenschein Helligkeit T Regen Taupunkt Windchill
31.03.2010 00:01 1,2 C 96 % 997 hPa 0,0 l/m 34,9 km/h (5 Bft) W-SW22.5 255 0 min 0 lux 0,00 min 0,6 C -13,0 C
31.03.2010 00:16 1,3 C 97 % 998 hPa 0,0 l/m 30,2 km/h (5 Bft) W-SW22.5 250 0 min 0 lux 0,00 min 0,9 C -11,6 C
31.03.2010 00:31 1,4 C 96 % 998 hPa 0,0 l/m 28,0 km/h (4 Bft) W-SW22.5 245 0 min 0 lux 0,00 min 0,8 C -10,8 C
31.03.2010 00:46 1,2 C 96 % 998 hPa 0,0 l/m 26,6 km/h (4 Bft) SW45 230 0 min 0 lux 0,00 min 0,6 C -10,6 C
31.03.2010 01:01 1,2 C 96 % 998 hPa 0,0 l/m 23,6 km/h (4 Bft) SW22.5 220 0 min 0 lux 0,00 min 0,6 C -9,6 C
31.03.2010 01:16 1,4 C 97 % 998 hPa 0,0 l/m 28,1 km/h (4 Bft) S-SW45 210 0 min 0 lux 0,00 min 1,0 C -10,9 C
31.03.2010 01:31 1,2 C 96 % 998 hPa 0,0 l/m 17,0 km/h (3 Bft) SW45 220 0 min 0 lux 0,00 min 0,6 C -6,6 C
31.03.2010 01:46 1,1 C 96 % 998 hPa 0,0 l/m 25,6 km/h (4 Bft) S-SW45 205 0 min 0 lux 0,00 min 0,5 C -10,4 C
31.03.2010 02:01 1,2 C 96 % 998 hPa 0,0 l/m 26,5 km/h (4 Bft) SW45 215 0 min 0 lux 0,00 min 0,6 C -10,6 C
31.03.2010 02:16 1,5 C 97 % 998 hPa 0,0 l/m 26,0 km/h (4 Bft) S45 190 0 min 0 lux 0,00 min 1,1 C -10,0 C
31.03.2010 02:31 1,7 C 97 % 998 hPa 0,0 l/m 24,3 km/h (4 Bft) S-SW45 195 0 min 0 lux 0,00 min 1,3 C -9,2 C
31.03.2010 02:46 1,9 C 97 % 998 hPa 0,0 l/m 30,7 km/h (5 Bft) S45 190 0 min 0 lux 0,00 min 1,5 C -10,9 C
31.03.2010 03:01 2,1 C 97 % 998 hPa 0,0 l/m 30,3 km/h (5 Bft) S-SW45 195 0 min 0 lux 0,00 min 1,7 C -10,5 C
31.03.2010 03:16 2,3 C 97 % 998 hPa 0,0 l/m 33,3 km/h (5 Bft) S-SW45 195 0 min 0 lux 0,00 min 1,9 C -11,0 C
31.03.2010 03:31 2,5 C 96 % 998 hPa 0,0 l/m 28,7 km/h (4 Bft) S-SW45 200 0 min 0 lux 0,00 min 1,9 C -9,5 C
31.03.2010 03:46 2,6 C 95 % 998 hPa 0,0 l/m 26,1 km/h (4 Bft) S-SW45 205 0 min 0 lux 0,00 min 1,9 C -8,6 C
31.03.2010 04:01 2,7 C 95 % 998 hPa 0,0 l/m 31,5 km/h (5 Bft) SW45 215 0 min 0 lux 0,00 min 2,0 C -10,0 C
31.03.2010 04:16 2,7 C 94 % 997 hPa 0,0 l/m 37,0 km/h (5 Bft) SW45 225 0 min 0 lux 0,00 min 1,8 C -11,3 C
31.03.2010 04:31 2,6 C 94 % 997 hPa 0,0 l/m 36,0 km/h (5 Bft) SW45 215 0 min 0 lux 0,00 min 1,7 C -11,3 C
31.03.2010 04:46 2,6 C 94 % 997 hPa 0,0 l/m 44,1 km/h (6 Bft) SW45 225 0 min 0 lux 0,00 min 1,7 C -12,8 C
31.03.2010 05:01 2,6 C 94 % 997 hPa 0,0 l/m 29,4 km/h (5 Bft) S-SW45 210 0 min 0 lux 0,00 min 1,7 C -9,6 C
31.03.2010 05:16 2,6 C 93 % 997 hPa 0,0 l/m 30,7 km/h (5 Bft) S-SW45 205 0 min 0 lux 0,00 min 1,6 C -9,9 C
31.03.2010 05:31 2,5 C 93 % 997 hPa 0,0 l/m 35,0 km/h (5 Bft) SW45 215 0 min 0 lux 0,00 min 1,5 C -11,2 C
31.03.2010 05:46 2,5 C 93 % 997 hPa 0,0 l/m 41,8 km/h (6 Bft) SW45 225 0 min 0 lux 0,00 min 1,5 C -12,6 C
31.03.2010 06:01 2,5 C 93 % 998 hPa 0,0 l/m 37,0 km/h (5 Bft) S-SW45 210 0 min 0 lux 0,00 min 1,5 C -11,6 C
31.03.2010 06:16 2,5 C 92 % 998 hPa 0,0 l/m 35,3 km/h (5 Bft) S-SW45 210 0 min 0 lux 0,00 min 1,3 C -11,2 C
31.03.2010 06:31 2,4 C 92 % 998 hPa 0,0 l/m 29,3 km/h (5 Bft) SW45 215 0 min 0 lux 0,00 min 1,2 C -9,8 C
31.03.2010 06:46 2,3 C 92 % 998 hPa 0,0 l/m 33,9 km/h (5 Bft) SW45 235 0 min 0 lux 0,00 min 1,1 C -11,2 C
31.03.2010 07:01 2,3 C 91 % 998 hPa 0,0 l/m 32,4 km/h (5 Bft) SW45 215 0 min 39 lux 0,00 min 1,0 C -10,8 C
31.03.2010 07:16 2,2 C 91 % 998 hPa 0,0 l/m 32,0 km/h (5 Bft) SW45 215 0 min 137 lux 0,00 min 0,9 C -10,9 C
31.03.2010 07:31 2,2 C 91 % 998 hPa 0,0 l/m 27,3 km/h (4 Bft) S-SW45 205 0 min 1,00 klux 0,00 min 0,9 C -9,5 C
31.03.2010 07:46 2,3 C 90 % 997 hPa 0,0 l/m 28,8 km/h (4 Bft) SW45 215 0 min 2,29 klux 0,00 min 0,8 C -9,8 C
31.03.2010 08:01 2,3 C 91 % 998 hPa 0,0 l/m 30,8 km/h (5 Bft) SW67.5 215 0 min 1,19 klux 0,00 min 1,0 C -10,4 C
31.03.2010 08:16 2,2 C 91 % 998 hPa 0,0 l/m 35,0 km/h (5 Bft) SW67.5 215 0 min 4,66 klux 0,00 min 0,9 C -11,6 C
31.03.2010 08:31 2,4 C 90 % 998 hPa 0,0 l/m 32,7 km/h (5 Bft) S-SW45 205 0 min 3,50 klux 0,00 min 0,9 C -10,8 C
31.03.2010 08:46 2,5 C 90 % 998 hPa 0,0 l/m 36,0 km/h (5 Bft) S-SW45 195 0 min 8,09 klux 0,00 min 1,0 C -11,4 C
31.03.2010 09:01 2,7 C 90 % 998 hPa 0,0 l/m 29,8 km/h (5 Bft) S-SW45 200 0 min 13,1 klux 0,00 min 1,2 C -9,6 C
31.03.2010 09:16 2,8 C 91 % 998 hPa 0,0 l/m 35,0 km/h (5 Bft) S-SW45 205 0 min 15,4 klux 0,00 min 1,5 C -10,7 C
31.03.2010 09:31 3,1 C 91 % 998 hPa 0,0 l/m 29,4 km/h (5 Bft) S22.5 190 0 min 31,0 klux 0,00 min 1,8 C -8,9 C
31.03.2010 09:46 2,6 C 91 % 998 hPa 0,3 l/m 34,6 km/h (5 Bft) S-SW67.5 200 0 min 14,8 klux 15,00 min 1,3 C -10,9 C
31.03.2010 10:01 3,4 C 91 % 998 hPa 0,0 l/m 41,5 km/h (6 Bft) SW45 215 15 min 51,9 klux 0,00 min 2,1 C -11,2 C
31.03.2010 10:16 4,6 C 86 % 998 hPa 0,0 l/m 38,5 km/h (5 Bft) SW45 220 15 min 52,1 klux 0,00 min 2,5 C -8,8 C
31.03.2010 10:31 4,8 C 83 % 998 hPa 0,0 l/m 43,7 km/h (6 Bft) S-SW45 210 0 min 32,1 klux 0,00 min 2,2 C -9,4 C
31.03.2010 10:46 5,3 C 81 % 998 hPa 0,0 l/m 51,6 km/h (7 Bft) SW45 215 15 min 50,9 klux 0,00 min 2,3 C -9,7 C
31.03.2010 11:01 4,7 C 80 % 998 hPa 0,0 l/m 48,0 km/h (6 Bft) SW45 220 0 min 34,5 klux 0,00 min 1,6 C -10,2 C
31.03.2010 11:16 5,2 C 79 % 998 hPa 0,0 l/m 38,1 km/h (5 Bft) S22.5 175 15 min 78,5 klux 0,00 min 1,9 C -7,9 C
31.03.2010 11:31 6,1 C 77 % 998 hPa 0,0 l/m 52,8 km/h (7 Bft) SW67.5 230 15 min 70,1 klux 0,00 min 2,4 C -8,6 C
31.03.2010 11:46 6,2 C 75 % 998 hPa 0,0 l/m 51,6 km/h (7 Bft) S-SW45 210 15 min 72,3 klux 0,00 min 2,1 C -8,3 C
31.03.2010 12:01 5,6 C 77 % 998 hPa 0,0 l/m 48,8 km/h (6 Bft) S-SW45 195 15 min 40,3 klux 0,00 min 1,9 C -8,9 C
31.03.2010 12:16 5,9 C 76 % 998 hPa 0,0 l/m 41,9 km/h (6 Bft) S-SW45 210 0 min 36,6 klux 0,00 min 2,0 C -7,5 C
31.03.2010 12:31 6,5 C 73 % 998 hPa 0,0 l/m 39,1 km/h (6 Bft) SW45 225 15 min 49,4 klux 0,00 min 2,0 C -6,1 C
31.03.2010 12:46 6,4 C 73 % 998 hPa 0,0 l/m 44,3 km/h (6 Bft) S45 190 15 min 91,9 klux 0,00 min 1,9 C -7,1 C
31.03.2010 13:01 6,0 C 79 % 998 hPa 0,0 l/m 42,3 km/h (6 Bft) S-SW45 210 15 min 83,4 klux 0,00 min 2,6 C -7,4 C
31.03.2010 13:16 6,8 C 75 % 998 hPa 0,0 l/m 56,3 km/h (7 Bft) SW45 225 15 min 91,0 klux 0,00 min 2,7 C -7,9 C
31.03.2010 13:31 6,7 C 75 % 998 hPa 0,0 l/m 47,0 km/h (6 Bft) S-SW67.5 205 15 min 84,4 klux 0,00 min 2,6 C -7,0 C
31.03.2010 13:46 6,8 C 73 % 998 hPa 0,0 l/m 53,1 km/h (7 Bft) SW67.5 215 15 min 81,1 klux 0,00 min 2,3 C -7,6 C
31.03.2010 14:01 7,5 C 67 % 997 hPa 0,0 l/m 59,6 km/h (7 Bft) SW67.5 220 15 min 90,9 klux 0,00 min 1,8 C -7,0 C
31.03.2010 14:16 7,2 C 69 % 997 hPa 0,0 l/m 49,5 km/h (6 Bft) SW67.5 215 15 min 43,3 klux 0,00 min 1,9 C -6,6 C
31.03.2010 14:31 7,2 C 68 % 998 hPa 0,0 l/m 44,6 km/h (6 Bft) S-SW67.5 210 15 min 91,9 klux 0,00 min 1,7 C -5,9 C
31.03.2010 14:46 7,4 C 67 % 998 hPa 0,0 l/m 34,1 km/h (5 Bft) S-SW67.5 210 15 min 74,4 klux 0,00 min 1,7 C -3,9 C
31.03.2010 15:01 6,2 C 72 % 998 hPa 0,0 l/m 48,2 km/h (6 Bft) SW45 230 0 min 26,1 klux 0,00 min 1,5 C -7,9 C
31.03.2010 15:16 6,6 C 73 % 997 hPa 0,0 l/m 33,9 km/h (5 Bft) SW67.5 215 15 min 81,1 klux 0,00 min 2,1 C -5,0 C
31.03.2010 15:31 7,2 C 66 % 997 hPa 0,3 l/m 47,4 km/h (6 Bft) SW67.5 225 15 min 93,3 klux 15,00 min 1,3 C -6,3 C
31.03.2010 15:46 6,4 C 68 % 997 hPa 0,0 l/m 47,9 km/h (6 Bft) W-SW67.5 240 0 min 28,8 klux 0,00 min 0,9 C -7,6 C
31.03.2010 16:01 5,8 C 80 % 998 hPa 0,3 l/m 62,1 km/h (8 Bft) W22.5 260 15 min 79,1 klux 15,00 min 2,6 C -9,9 C
31.03.2010 16:16 6,6 C 77 % 997 hPa 0,0 l/m 39,3 km/h (6 Bft) SW45 230 15 min 78,0 klux 0,00 min 2,9 C -6,0 C
31.03.2010 16:31 6,2 C 78 % 998 hPa 0,0 l/m 57,0 km/h (7 Bft) SW67.5 230 15 min 73,4 klux 0,00 min 2,7 C -8,9 C
31.03.2010 16:46 5,3 C 76 % 998 hPa 0,3 l/m 78,7 km/h (9 Bft) W22.5 260 15 min 45,9 klux 15,00 min 1,4 C -11,4 C
31.03.2010 17:01 2,6 C 81 % 999 hPa 0,0 l/m 66,9 km/h (8 Bft) W22.5 260 0 min 4,26 klux 0,00 min -0,3 C -15,3 C
31.03.2010 17:16 2,3 C 89 % 998 hPa 0,6 l/m 34,8 km/h (5 Bft) SW45 225 15 min 51,5 klux 15,00 min 0,7 C -11,4 C
31.03.2010 17:31 3,8 C 87 % 998 hPa 0,0 l/m 41,5 km/h (6 Bft) SW45 230 15 min 51,7 klux 0,00 min 1,8 C -10,6 C
31.03.2010 17:46 4,1 C 85 % 998 hPa 0,0 l/m 38,0 km/h (5 Bft) SW45 230 0 min 38,8 klux 0,00 min 1,8 C -9,5 C
31.03.2010 18:01 3,9 C 85 % 998 hPa 0,0 l/m 33,0 km/h (5 Bft) SW22.5 230 0 min 21,0 klux 0,00 min 1,6 C -8,7 C
31.03.2010 18:16 4,0 C 83 % 998 hPa 0,3 l/m 40,3 km/h (6 Bft) SW45 225 0 min 14,0 klux 15,00 min 1,4 C -10,1 C
31.03.2010 18:31 4,1 C 79 % 998 hPa 0,0 l/m 51,6 km/h (7 Bft) SW67.5 225 0 min 12,0 klux 0,00 min 0,8 C -11,6 C
31.03.2010 18:46 3,9 C 79 % 998 hPa 0,0 l/m 60,9 km/h (7 Bft) W-SW45 245 0 min 11,9 klux 0,00 min 0,6 C -12,8 C
31.03.2010 19:01 3,7 C 79 % 998 hPa 0,0 l/m 59,7 km/h (7 Bft) W-SW45 240 0 min 13,1 klux 0,00 min 0,4 C -13,0 C
31.03.2010 19:16 3,3 C 80 % 999 hPa 0,0 l/m 50,7 km/h (7 Bft) SW67.5 225 0 min 6,17 klux 0,00 min 0,2 C -12,7 C
31.03.2010 19:31 3,3 C 82 % 999 hPa 0,0 l/m 44,7 km/h (6 Bft) W-SW22.5 250 0 min 2,53 klux 0,00 min 0,5 C -11,8 C
31.03.2010 19:46 2,7 C 85 % 999 hPa 0,0 l/m 58,7 km/h (7 Bft) W45 265 0 min 7,72 klux 0,00 min 0,4 C -14,5 C
31.03.2010 20:01 1,9 C 85 % 999 hPa 0,0 l/m 33,5 km/h (5 Bft) W-SW22.5 255 0 min 3,30 klux 0,00 min -0,3 C -11,7 C
31.03.2010 20:16 1,3 C 88 % 999 hPa 0,0 l/m 36,9 km/h (5 Bft) W-SW45 245 0 min 670 lux 0,00 min -0,5 C -13,4 C
31.03.2010 20:31 1,2 C 89 % 999 hPa 0,0 l/m 37,2 km/h (5 Bft) SW67.5 235 0 min 148 lux 0,00 min -0,4 C -13,6 C
31.03.2010 20:46 1,2 C 90 % 1000 hPa 0,0 l/m 37,0 km/h (5 Bft) SW45 235 0 min 13 lux 0,00 min -0,3 C -13,5 C
31.03.2010 21:01 1,1 C 89 % 1000 hPa 0,0 l/m 41,8 km/h (6 Bft) W-SW45 245 0 min 0 lux 0,00 min -0,5 C -14,7 C
31.03.2010 21:16 0,7 C 90 % 1000 hPa 0,0 l/m 33,3 km/h (5 Bft) SW45 230 0 min 0 lux 0,00 min -0,7 C -13,3 C
31.03.2010 21:31 0,7 C 89 % 1000 hPa 0,0 l/m 42,3 km/h (6 Bft) W-SW45 245 0 min 0 lux 0,00 min -0,9 C -15,3 C
31.03.2010 21:46 0,7 C 88 % 1000 hPa 0,0 l/m 34,2 km/h (5 Bft) W-SW45 240 0 min 0 lux 0,00 min -1,1 C -13,6 C
31.03.2010 22:01 0,7 C 88 % 1000 hPa 0,0 l/m 32,6 km/h (5 Bft) SW45 235 0 min 0 lux 0,00 min -1,1 C -13,2 C
31.03.2010 22:16 0,6 C 87 % 1000 hPa 0,0 l/m 43,0 km/h (6 Bft) SW45 235 0 min 0 lux 0,00 min -1,3 C -15,6 C
31.03.2010 22:31 0,5 C 87 % 1001 hPa 0,0 l/m 32,9 km/h (5 Bft) W-SW45 250 0 min 0 lux 0,00 min -1,4 C -13,5 C
31.03.2010 22:46 0,3 C 88 % 1000 hPa 0,0 l/m 26,5 km/h (4 Bft) W-SW45 250 0 min 0 lux 0,00 min -1,4 C -11,9 C
31.03.2010 23:01 0,3 C 88 % 1001 hPa 0,0 l/m 36,4 km/h (5 Bft) W-SW45 240 0 min 0 lux 0,00 min -1,4 C -14,7 C
31.03.2010 23:16 0,3 C 88 % 1001 hPa 0,0 l/m 35,5 km/h (5 Bft) W-SW45 240 0 min 0 lux 0,00 min -1,4 C -14,5 C
31.03.2010 23:31 0,4 C 88 % 1001 hPa 0,0 l/m 39,3 km/h (6 Bft) W-SW45 250 0 min 0 lux 0,00 min -1,3 C -15,2 C
31.03.2010 23:46 0,5 C 88 % 1001 hPa 0,0 l/m 46,9 km/h (6 Bft) W-SW45 250 0 min 0 lux 0,00 min -1,3 C -16,4 C
_ Min-Zeit 22:46 15:31 00:01 - 01:31 - - - - - 22:46 23:46
Minimum _ 0,3 C 66 % 997 hPa - 17,0 km/h (3 Bft) - - - - - -1,4 C -16,4 C
_ Max-Zeit 14:01 00:16 22:31 17:16 16:46 - - 10:01 15:31 09:46 16:16 14:46
Maximum _ 7,5 C 97 % 1001 hPa 0,6 l/m 78,7 km/h
W (9 Bft)
- - 15 min 93,3 klux 15,00 min 2,9 C -3,9 C
Durchschnitt _ 3,2 C 86 % 998 hPa #2,1 l/m 39,1 km/h (6 Bft) SW - #6:15 h 22,3 klux #1:30 h 1,1 C -10,5 C